createdAt,value
2023-04-12T00:01:37.972Z,8.36
2023-04-12T00:04:06.348Z,8.35
2023-04-12T00:06:36.357Z,8.47
2023-04-12T00:09:05.420Z,8.55
2023-04-12T00:11:35.303Z,8.59
2023-04-12T00:14:03.922Z,8.64
2023-04-12T00:16:32.638Z,8.65
2023-04-12T00:19:05.095Z,8.75
2023-04-12T00:21:33.696Z,8.84
2023-04-12T00:24:02.210Z,8.76
2023-04-12T00:26:30.889Z,8.70
2023-04-12T00:28:59.658Z,8.68
2023-04-12T00:31:28.177Z,8.59
2023-04-12T00:33:57.370Z,8.53
2023-04-12T00:36:29.711Z,8.59
2023-04-12T00:38:57.930Z,8.49
2023-04-12T00:41:28.227Z,8.47
2023-04-12T00:43:56.984Z,8.51
2023-04-12T00:46:26.001Z,8.51
2023-04-12T00:48:54.476Z,8.41
2023-04-12T00:51:25.836Z,8.38
2023-04-12T00:53:58.699Z,8.36
2023-04-12T00:56:28.359Z,8.36
2023-04-12T00:58:59.034Z,8.32
2023-04-12T01:01:29.148Z,8.28
2023-04-12T01:04:01.358Z,8.27
2023-04-12T01:06:39.064Z,8.26
2023-04-12T01:09:22.022Z,8.21
2023-04-12T01:12:03.217Z,8.17
2023-04-12T01:14:40.620Z,8.14
2023-04-12T01:17:14.221Z,8.11
2023-04-12T01:19:57.498Z,8.07
2023-04-12T01:22:46.337Z,8.07
2023-04-12T01:25:29.769Z,8.04
2023-04-12T01:28:03.972Z,8.01
2023-04-12T01:30:33.920Z,7.98
2023-04-12T01:33:05.383Z,8.02
2023-04-12T01:35:35.348Z,7.93
2023-04-12T01:38:06.842Z,7.88
2023-04-12T01:40:37.087Z,7.88
2023-04-12T01:43:08.276Z,7.83
2023-04-12T01:45:36.943Z,7.84
2023-04-12T01:48:07.202Z,7.76
2023-04-12T01:50:41.456Z,7.70
2023-04-12T01:53:15.863Z,7.68
2023-04-12T01:55:48.717Z,7.71
2023-04-12T01:58:23.225Z,7.61
2023-04-12T02:00:53.126Z,7.59
2023-04-12T02:03:23.228Z,7.57
2023-04-12T02:05:53.598Z,7.57
2023-04-12T02:08:23.103Z,7.57
2023-04-12T02:10:52.632Z,7.50
2023-04-12T02:13:22.283Z,7.47
2023-04-12T02:15:51.884Z,7.45
2023-04-12T02:18:20.265Z,7.47
2023-04-12T02:20:50.645Z,7.38
2023-04-12T02:23:18.770Z,7.37
2023-04-12T02:25:47.444Z,7.39
2023-04-12T02:28:18.491Z,7.45
2023-04-12T02:30:48.638Z,7.39
2023-04-12T02:33:16.977Z,7.41
2023-04-12T02:35:47.998Z,7.44
2023-04-12T02:38:20.597Z,7.38
2023-04-12T02:40:49.804Z,7.40
2023-04-12T02:43:20.223Z,7.30
2023-04-12T02:45:58.681Z,7.29
2023-04-12T02:48:27.378Z,7.44
2023-04-12T02:50:55.920Z,7.39
2023-04-12T02:53:26.589Z,7.40
2023-04-12T02:56:10.046Z,7.36
2023-04-12T02:58:38.842Z,7.31
2023-04-12T03:01:14.132Z,7.25
2023-04-12T03:04:02.918Z,7.23
2023-04-12T03:06:55.773Z,7.20
2023-04-12T03:09:32.443Z,7.27
2023-04-12T03:12:03.970Z,7.29
2023-04-12T03:14:36.524Z,7.27
2023-04-12T03:17:08.966Z,7.27
2023-04-12T03:19:41.659Z,7.25
2023-04-12T03:22:10.920Z,7.31
2023-04-12T03:24:44.696Z,7.33
2023-04-12T03:27:16.357Z,7.30
2023-04-12T03:29:45.343Z,7.32
2023-04-12T03:32:16.515Z,7.26
2023-04-12T03:34:47.873Z,7.30
2023-04-12T03:37:22.017Z,7.27
2023-04-12T03:39:51.294Z,7.26
2023-04-12T03:42:33.012Z,7.23
2023-04-12T03:45:10.656Z,7.26
2023-04-12T03:47:42.413Z,7.27
2023-04-12T03:50:12.700Z,7.30
2023-04-12T03:52:47.691Z,7.28
2023-04-12T03:55:18.487Z,7.28
2023-04-12T03:57:48.914Z,7.23
2023-04-12T04:00:20.656Z,7.25
2023-04-12T04:03:10.863Z,7.30
2023-04-12T04:05:47.810Z,7.35
2023-04-12T04:08:19.584Z,7.38
2023-04-12T04:10:52.307Z,7.35
2023-04-12T04:13:23.472Z,7.39
2023-04-12T04:16:01.490Z,7.39
2023-04-12T04:18:32.848Z,7.38
2023-04-12T04:21:02.751Z,7.43
2023-04-12T04:23:38.590Z,7.45
2023-04-12T04:26:10.144Z,7.39
2023-04-12T04:28:45.771Z,7.36
2023-04-12T04:31:18.734Z,7.32
2023-04-12T04:33:52.201Z,7.42
2023-04-12T04:36:26.657Z,7.32
2023-04-12T04:38:58.441Z,7.32
2023-04-12T04:41:41.548Z,7.32
2023-04-12T04:44:25.832Z,7.26
2023-04-12T04:46:57.895Z,7.27
2023-04-12T04:49:29.154Z,7.36
2023-04-12T04:52:16.016Z,7.33
2023-04-12T04:54:48.262Z,7.33
2023-04-12T04:57:19.760Z,7.29
2023-04-12T04:59:48.268Z,7.24
2023-04-12T05:02:24.144Z,7.30
2023-04-12T05:04:57.385Z,7.27
2023-04-12T05:07:28.296Z,7.35
2023-04-12T05:09:56.614Z,7.35
2023-04-12T05:12:25.348Z,7.25
2023-04-12T05:15:10.694Z,7.25
2023-04-12T05:17:41.028Z,7.32
2023-04-12T05:20:12.378Z,7.32
2023-04-12T05:22:42.480Z,7.27
2023-04-12T05:25:11.391Z,7.32
2023-04-12T05:27:46.716Z,7.36
2023-04-12T05:30:18.359Z,7.40
2023-04-12T05:32:52.100Z,7.36
2023-04-12T05:35:27.409Z,7.42
2023-04-12T05:38:01.526Z,7.42
2023-04-12T05:40:31.615Z,7.46
2023-04-12T05:43:07.852Z,7.43
2023-04-12T05:45:37.836Z,7.49
2023-04-12T05:48:09.473Z,7.48
2023-04-12T05:50:39.348Z,7.49
2023-04-12T05:53:08.208Z,7.48
2023-04-12T05:55:38.601Z,7.44
2023-04-12T05:58:07.935Z,7.50
2023-04-12T06:00:36.871Z,7.47
2023-04-12T06:03:05.810Z,7.48
2023-04-12T06:05:37.269Z,7.54
2023-04-12T06:08:10.435Z,7.52
2023-04-12T06:10:38.570Z,7.58
2023-04-12T06:13:07.177Z,7.60
2023-04-12T06:15:37.035Z,7.66
2023-04-12T06:18:05.328Z,7.75
2023-04-12T06:20:33.923Z,7.77
2023-04-12T06:23:03.159Z,7.78
2023-04-12T06:25:33.427Z,7.93
2023-04-12T06:28:02.360Z,7.87
2023-04-12T06:30:33.572Z,7.91
2023-04-12T06:33:02.410Z,7.88
2023-04-12T06:35:30.816Z,7.94
2023-04-12T06:37:59.194Z,8.05
2023-04-12T06:40:28.244Z,8.05
2023-04-12T06:42:57.769Z,8.07
2023-04-12T06:45:26.078Z,8.12
2023-04-12T06:47:56.125Z,8.24
2023-04-12T06:50:24.549Z,8.19
2023-04-12T06:52:53.048Z,8.24
2023-04-12T06:55:21.527Z,8.29
2023-04-12T06:57:52.088Z,8.38
2023-04-12T07:00:23.167Z,8.31
2023-04-12T07:02:51.964Z,8.37
2023-04-12T07:05:22.058Z,8.36
2023-04-12T07:07:50.797Z,8.43
2023-04-12T07:10:19.861Z,8.48
2023-04-12T07:12:50.746Z,8.50
2023-04-12T07:15:19.545Z,8.63
2023-04-12T07:17:51.643Z,8.69
2023-04-12T07:20:23.711Z,8.71
2023-04-12T07:22:52.014Z,8.78
2023-04-12T07:25:22.733Z,8.71
2023-04-12T07:27:54.268Z,8.81
2023-04-12T07:30:25.787Z,8.90
2023-04-12T07:33:05.233Z,8.89
2023-04-12T07:35:43.111Z,9.02
2023-04-12T07:38:11.785Z,9.00
2023-04-12T07:40:41.242Z,9.17
2023-04-12T07:43:11.783Z,9.29
2023-04-12T07:45:43.560Z,9.52
2023-04-12T07:48:13.716Z,9.50
2023-04-12T07:50:44.751Z,9.43
2023-04-12T07:53:22.397Z,9.59
2023-04-12T07:55:52.048Z,9.53
2023-04-12T07:58:21.302Z,9.37
2023-04-12T08:00:52.776Z,9.43
2023-04-12T08:03:22.357Z,9.31
2023-04-12T08:05:54.161Z,9.31
2023-04-12T08:08:23.392Z,9.39
2023-04-12T08:10:53.392Z,9.35
2023-04-12T08:13:22.111Z,9.37
2023-04-12T08:15:50.795Z,9.43
2023-04-12T08:18:20.990Z,9.45
2023-04-12T08:20:50.917Z,9.58
2023-04-12T08:23:19.375Z,9.55
2023-04-12T08:25:48.031Z,9.63
2023-04-12T08:28:16.733Z,9.63
2023-04-12T08:30:47.288Z,9.61
2023-04-12T08:33:16.042Z,9.72
2023-04-12T08:35:44.334Z,9.68
2023-04-12T08:38:14.014Z,9.70
2023-04-12T08:40:43.369Z,9.83
2023-04-12T08:43:13.250Z,9.90
2023-04-12T08:45:44.381Z,9.85
2023-04-12T08:48:14.786Z,9.89
2023-04-12T08:50:45.201Z,9.88
2023-04-12T08:53:16.429Z,9.98
2023-04-12T08:55:47.000Z,9.96
2023-04-12T08:58:16.597Z,9.98
2023-04-12T09:00:46.918Z,10.13
2023-04-12T09:03:15.605Z,10.23
2023-04-12T09:05:43.998Z,10.29
2023-04-12T09:08:14.800Z,10.32
2023-04-12T09:10:43.510Z,10.42
2023-04-12T09:13:11.996Z,10.48
2023-04-12T09:15:50.663Z,10.43
2023-04-12T09:18:19.986Z,10.42
2023-04-12T09:20:48.095Z,10.36
2023-04-12T09:23:22.351Z,10.32
2023-04-12T09:25:53.173Z,10.38
2023-04-12T09:28:24.773Z,10.57
2023-04-12T09:30:53.478Z,10.52
2023-04-12T09:33:23.041Z,10.56
2023-04-12T09:36:03.764Z,10.67
2023-04-12T09:38:38.148Z,10.89
2023-04-12T09:41:25.036Z,11.24
2023-04-12T09:43:57.191Z,11.36
2023-04-12T09:46:28.008Z,11.28
2023-04-12T09:48:58.830Z,11.14
2023-04-12T09:51:29.438Z,11.10
2023-04-12T09:54:01.959Z,10.89
2023-04-12T09:56:32.204Z,10.84
2023-04-12T09:59:03.950Z,10.73
2023-04-12T10:01:36.817Z,10.66
2023-04-12T10:04:07.431Z,10.69
2023-04-12T10:06:36.812Z,10.74
2023-04-12T10:09:09.771Z,10.69
2023-04-12T10:11:42.046Z,10.70
2023-04-12T10:14:11.828Z,10.67
2023-04-12T10:16:42.976Z,10.83
2023-04-12T10:19:14.310Z,10.79
2023-04-12T10:21:43.097Z,10.86
2023-04-12T10:24:13.115Z,10.88
2023-04-12T10:26:44.212Z,10.92
2023-04-12T10:29:24.342Z,10.89
2023-04-12T10:31:53.654Z,10.98
2023-04-12T10:34:26.562Z,10.99
2023-04-12T10:36:56.218Z,10.86
2023-04-12T10:39:43.243Z,11.25
2023-04-12T10:42:25.515Z,11.42
2023-04-12T10:44:57.478Z,11.57
2023-04-12T10:47:58.351Z,11.65
2023-04-12T10:50:32.701Z,11.81
2023-04-12T10:53:26.735Z,11.95
2023-04-12T10:55:56.816Z,11.58
2023-04-12T10:58:57.352Z,11.73
2023-04-12T11:01:27.449Z,12.19
2023-04-12T11:04:10.358Z,12.11
2023-04-12T11:06:43.810Z,11.87
2023-04-12T11:09:44.456Z,11.85
2023-04-12T11:12:19.413Z,11.98
2023-04-12T11:14:49.124Z,11.84
2023-04-12T11:17:22.073Z,11.71
2023-04-12T11:19:56.248Z,11.59
2023-04-12T11:22:27.316Z,11.62
2023-04-12T11:24:57.350Z,11.51
2023-04-12T11:27:28.296Z,11.59
2023-04-12T11:29:59.372Z,11.59
2023-04-12T11:32:34.179Z,11.69
2023-04-12T11:35:03.116Z,11.89
2023-04-12T11:37:35.835Z,11.83
2023-04-12T11:40:08.821Z,12.02
2023-04-12T11:42:41.690Z,12.28
2023-04-12T11:45:17.159Z,12.42
2023-04-12T11:47:47.526Z,12.47
2023-04-12T11:50:29.913Z,12.58
2023-04-12T11:53:11.508Z,12.70
2023-04-12T11:55:40.107Z,12.44
2023-04-12T11:58:11.112Z,12.75
2023-04-12T12:00:39.663Z,12.66
2023-04-12T12:03:08.945Z,12.41
2023-04-12T12:05:43.124Z,12.29
2023-04-12T12:08:14.200Z,12.19
2023-04-12T12:10:59.854Z,12.28
2023-04-12T12:13:47.273Z,12.41
2023-04-12T12:16:16.303Z,12.53
2023-04-12T12:18:46.892Z,12.20
2023-04-12T12:21:15.978Z,12.33
2023-04-12T12:23:47.160Z,12.46
2023-04-12T12:26:21.802Z,12.76
2023-04-12T12:28:58.014Z,13.06
2023-04-12T12:31:28.467Z,13.20
2023-04-12T12:33:58.434Z,12.95
2023-04-12T12:36:32.843Z,12.77
2023-04-12T12:39:07.903Z,12.76
2023-04-12T12:41:37.632Z,12.52
2023-04-12T12:44:08.924Z,12.41
2023-04-12T12:46:51.823Z,12.46
2023-04-12T12:49:26.758Z,12.45
2023-04-12T12:51:55.240Z,12.59
2023-04-12T12:54:39.619Z,12.70
2023-04-12T12:57:09.922Z,12.61
2023-04-12T12:59:39.682Z,12.57
2023-04-12T13:02:08.948Z,12.52
2023-04-12T13:04:39.287Z,12.44
2023-04-12T13:07:07.549Z,12.34
2023-04-12T13:09:37.907Z,12.25
2023-04-12T13:12:06.963Z,12.05
2023-04-12T13:14:35.923Z,12.16
2023-04-12T13:17:06.266Z,12.05
2023-04-12T13:19:34.565Z,11.92
2023-04-12T13:22:03.094Z,11.87
2023-04-12T13:24:31.405Z,11.86
2023-04-12T13:26:59.791Z,11.76
2023-04-12T13:29:28.645Z,11.77
2023-04-12T13:31:56.980Z,11.93
2023-04-12T13:34:28.143Z,12.00
2023-04-12T13:36:56.988Z,11.87
2023-04-12T13:39:25.388Z,11.96
2023-04-12T13:41:53.665Z,12.18
2023-04-12T13:44:22.295Z,11.93
2023-04-12T13:46:51.581Z,11.89
2023-04-12T13:49:19.639Z,11.95
2023-04-12T13:51:51.180Z,12.01
2023-04-12T13:54:19.655Z,11.86
2023-04-12T13:56:48.537Z,11.82
2023-04-12T13:59:18.389Z,11.73
2023-04-12T14:01:54.108Z,11.69
2023-04-12T14:04:23.199Z,12.08
2023-04-12T14:06:54.664Z,12.34
2023-04-12T14:09:27.162Z,12.72
2023-04-12T14:11:56.556Z,12.87
2023-04-12T14:14:28.602Z,12.91
2023-04-12T14:16:57.848Z,12.76
2023-04-12T14:19:30.665Z,12.72
2023-04-12T14:22:02.426Z,12.70
2023-04-12T14:24:31.738Z,12.46
2023-04-12T14:27:01.059Z,12.46
2023-04-12T14:29:29.445Z,12.54
2023-04-12T14:31:58.174Z,12.41
2023-04-12T14:34:26.385Z,12.20
2023-04-12T14:36:54.923Z,12.17
2023-04-12T14:39:26.296Z,11.96
2023-04-12T14:41:57.291Z,12.12
2023-04-12T14:44:26.496Z,12.13
2023-04-12T14:46:54.813Z,12.17
2023-04-12T14:49:23.309Z,12.16
2023-04-12T14:51:54.526Z,12.10
2023-04-12T14:54:24.165Z,11.97
2023-04-12T14:56:55.536Z,11.95
2023-04-12T14:59:26.164Z,11.90
2023-04-12T15:01:58.622Z,11.87
2023-04-12T15:04:30.406Z,11.90
2023-04-12T15:06:59.150Z,11.99
2023-04-12T15:09:28.614Z,12.08
2023-04-12T15:12:01.203Z,12.07
2023-04-12T15:14:30.220Z,11.92
2023-04-12T15:17:00.968Z,11.99
2023-04-12T15:19:29.494Z,11.97
2023-04-12T15:21:58.570Z,11.97
2023-04-12T15:24:28.280Z,11.92
2023-04-12T15:26:56.990Z,12.07
2023-04-12T15:29:28.048Z,12.07
2023-04-12T15:31:58.050Z,12.07
2023-04-12T15:34:29.931Z,12.18
2023-04-12T15:36:59.083Z,12.15
2023-04-12T15:39:29.029Z,12.11
2023-04-12T15:41:57.637Z,12.32
2023-04-12T15:44:31.635Z,12.34
2023-04-12T15:47:10.349Z,12.43
2023-04-12T15:49:40.992Z,12.61
2023-04-12T15:52:09.374Z,12.76
2023-04-12T15:54:43.711Z,12.94
2023-04-12T15:57:13.353Z,13.03
2023-04-12T15:59:42.109Z,13.39
2023-04-12T16:02:10.602Z,13.59
2023-04-12T16:04:39.275Z,13.77
2023-04-12T16:07:09.143Z,14.31
2023-04-12T16:09:40.044Z,13.97
2023-04-12T16:12:08.529Z,13.95
2023-04-12T16:14:38.389Z,13.92
2023-04-12T16:17:07.552Z,14.05
2023-04-12T16:19:35.901Z,13.90
2023-04-12T16:22:05.032Z,13.75
2023-04-12T16:24:33.252Z,13.91
2023-04-12T16:27:03.061Z,13.73
2023-04-12T16:29:34.069Z,13.70
2023-04-12T16:32:03.000Z,13.51
2023-04-12T16:34:33.639Z,13.35
2023-04-12T16:37:02.659Z,13.12
2023-04-12T16:39:32.384Z,13.03
2023-04-12T16:42:04.097Z,13.02
2023-04-12T16:44:33.635Z,13.03
2023-04-12T16:47:02.091Z,12.92
2023-04-12T16:49:31.916Z,12.84
2023-04-12T16:52:01.326Z,12.83
2023-04-12T16:54:29.508Z,12.77
2023-04-12T16:56:57.942Z,12.68
2023-04-12T16:59:27.707Z,12.91
2023-04-12T17:01:56.408Z,12.79
2023-04-12T17:04:27.535Z,12.89
2023-04-12T17:06:55.842Z,12.90
2023-04-12T17:09:25.937Z,12.78
2023-04-12T17:11:54.665Z,12.65
2023-04-12T17:14:24.554Z,12.57
2023-04-12T17:16:54.359Z,12.47
2023-04-12T17:19:22.854Z,12.34
2023-04-12T17:21:51.484Z,12.44
2023-04-12T17:24:19.762Z,12.27
2023-04-12T17:26:48.616Z,12.10
2023-04-12T17:29:19.212Z,12.02
2023-04-12T17:31:49.777Z,11.95
2023-04-12T17:34:21.842Z,11.75
2023-04-12T17:36:50.322Z,11.74
2023-04-12T17:39:18.874Z,11.66
2023-04-12T17:41:50.092Z,11.66
2023-04-12T17:44:19.804Z,11.67
2023-04-12T17:46:48.694Z,11.60
2023-04-12T17:49:17.478Z,11.65
2023-04-12T17:51:47.270Z,11.47
2023-04-12T17:54:16.410Z,11.36
2023-04-12T17:56:44.859Z,11.28
2023-04-12T17:59:13.606Z,11.17
2023-04-12T18:01:44.152Z,11.20
2023-04-12T18:04:14.150Z,10.98
2023-04-12T18:06:42.880Z,11.05
2023-04-12T18:09:13.715Z,10.85
2023-04-12T18:11:43.284Z,10.66
2023-04-12T18:14:12.073Z,10.60
2023-04-12T18:16:40.773Z,10.53
2023-04-12T18:19:09.806Z,10.47
2023-04-12T18:21:38.365Z,10.41
2023-04-12T18:24:07.424Z,10.36
2023-04-12T18:26:37.337Z,10.17
2023-04-12T18:29:07.163Z,9.99
2023-04-12T18:31:37.753Z,9.85
2023-04-12T18:34:06.062Z,9.70
2023-04-12T18:36:34.847Z,9.55
2023-04-12T18:39:03.669Z,9.40
2023-04-12T18:41:32.090Z,9.29
2023-04-12T18:44:01.901Z,9.25
2023-04-12T18:46:30.897Z,9.21
2023-04-12T18:48:59.328Z,9.28
2023-04-12T18:51:29.174Z,9.28
2023-04-12T18:54:00.458Z,9.27
2023-04-12T18:56:29.913Z,9.24
2023-04-12T18:58:58.757Z,9.25
2023-04-12T19:01:29.282Z,9.30
2023-04-12T19:04:01.386Z,9.48
2023-04-12T19:06:31.778Z,9.50
2023-04-12T19:09:00.484Z,9.69
2023-04-12T19:11:29.314Z,9.73
2023-04-12T19:13:57.773Z,8.54
2023-04-12T19:16:29.850Z,7.80
2023-04-12T19:19:00.394Z,7.54
2023-04-12T19:21:31.042Z,7.35
2023-04-12T19:24:00.934Z,7.16
2023-04-12T19:26:30.366Z,7.14
2023-04-12T19:28:58.851Z,6.97
2023-04-12T19:31:28.796Z,6.92
2023-04-12T19:33:57.820Z,6.85
2023-04-12T19:36:27.935Z,6.70
2023-04-12T19:38:57.089Z,6.61
2023-04-12T19:41:28.707Z,6.55
2023-04-12T19:43:57.253Z,6.48
2023-04-12T19:46:26.427Z,6.45
2023-04-12T19:48:58.629Z,6.41
2023-04-12T19:51:27.254Z,6.34
2023-04-12T19:53:55.929Z,6.34
2023-04-12T19:56:25.519Z,6.27
2023-04-12T19:58:54.860Z,6.22
2023-04-12T20:01:25.884Z,6.14
2023-04-12T20:03:54.242Z,6.12
2023-04-12T20:06:24.855Z,6.13
2023-04-12T20:08:54.675Z,6.15
2023-04-12T20:11:23.001Z,6.15
2023-04-12T20:13:51.766Z,6.22
2023-04-12T20:16:21.405Z,6.29
2023-04-12T20:18:55.573Z,6.32
2023-04-12T20:21:31.914Z,6.34
2023-04-12T20:24:00.464Z,6.33
2023-04-12T20:26:31.567Z,6.29
2023-04-12T20:29:01.137Z,6.28
2023-04-12T20:31:31.341Z,6.21
2023-04-12T20:34:00.208Z,6.13
2023-04-12T20:36:30.293Z,6.09
2023-04-12T20:38:59.614Z,6.05
2023-04-12T20:41:28.362Z,5.99
2023-04-12T20:43:58.632Z,5.93
2023-04-12T20:46:31.682Z,5.93
2023-04-12T20:49:02.182Z,5.93
2023-04-12T20:51:34.378Z,5.85
2023-04-12T20:54:07.584Z,5.81
2023-04-12T20:56:43.325Z,5.77
2023-04-12T20:59:12.264Z,5.73
2023-04-12T21:01:48.150Z,5.73
2023-04-12T21:04:18.422Z,5.68
2023-04-12T21:06:55.415Z,5.69
2023-04-12T21:09:27.766Z,5.68
2023-04-12T21:11:58.126Z,5.71
2023-04-12T21:14:30.802Z,5.70
2023-04-12T21:17:04.159Z,5.68
2023-04-12T21:19:41.864Z,5.70
2023-04-12T21:22:14.684Z,5.74
2023-04-12T21:24:50.285Z,5.77
2023-04-12T21:27:22.618Z,5.75
2023-04-12T21:29:50.705Z,5.75
2023-04-12T21:32:22.012Z,5.76
2023-04-12T21:34:51.484Z,5.72
2023-04-12T21:37:22.091Z,5.71
2023-04-12T21:39:54.005Z,5.67
2023-04-12T21:42:24.353Z,5.67
2023-04-12T21:45:04.419Z,5.62
2023-04-12T21:47:33.005Z,5.63
2023-04-12T21:50:01.572Z,5.64
2023-04-12T21:52:31.414Z,5.70
2023-04-12T21:54:59.405Z,5.68
2023-04-12T21:57:31.125Z,5.68
2023-04-12T21:59:59.417Z,5.68
2023-04-12T22:02:29.852Z,5.72
2023-04-12T22:04:58.218Z,5.80
2023-04-12T22:07:26.851Z,5.81
2023-04-12T22:09:58.594Z,5.90
2023-04-12T22:12:27.397Z,5.96
2023-04-12T22:14:57.623Z,5.87
2023-04-12T22:17:26.475Z,5.91
2023-04-12T22:19:56.627Z,5.89
2023-04-12T22:22:27.421Z,5.81
2023-04-12T22:24:57.004Z,5.77
2023-04-12T22:27:27.027Z,5.73
2023-04-12T22:29:57.113Z,5.71
2023-04-12T22:32:26.388Z,5.72
2023-04-12T22:35:05.366Z,5.73
2023-04-12T22:37:37.814Z,5.75
2023-04-12T22:40:11.840Z,5.76
2023-04-12T22:42:46.511Z,5.79
2023-04-12T22:45:20.215Z,5.87
2023-04-12T22:47:49.107Z,5.95
2023-04-12T22:50:17.403Z,5.99
2023-04-12T22:52:50.080Z,5.97
2023-04-12T22:55:21.868Z,5.99
2023-04-12T22:57:50.860Z,5.96
2023-04-12T23:00:19.399Z,5.96
2023-04-12T23:02:48.553Z,6.02
2023-04-12T23:05:17.686Z,6.04
2023-04-12T23:07:46.106Z,6.07
2023-04-12T23:10:15.049Z,6.05
2023-04-12T23:12:46.596Z,6.01
2023-04-12T23:15:15.306Z,6.23
2023-04-12T23:17:44.047Z,6.11
2023-04-12T23:20:14.757Z,6.08
2023-04-12T23:22:57.903Z,6.01
2023-04-12T23:25:37.810Z,5.96
2023-04-12T23:28:12.984Z,5.91
2023-04-12T23:30:44.352Z,5.87
2023-04-12T23:33:14.836Z,5.82
2023-04-12T23:35:45.167Z,5.89
2023-04-12T23:38:22.998Z,5.94
2023-04-12T23:40:53.804Z,6.13
2023-04-12T23:43:26.751Z,6.13
2023-04-12T23:45:58.952Z,6.10
2023-04-12T23:48:28.056Z,6.06
2023-04-12T23:50:56.738Z,5.99
2023-04-12T23:53:25.185Z,5.99
2023-04-12T23:55:54.723Z,6.01
2023-04-12T23:58:26.648Z,5.94
